sensor_id;sensor_type;location;lat;lon;timestamp;P1;durP1;ratioP1;P2;durP2;ratioP2
48727;SDS011;34527;45.618;5.130;2022-10-16T00:00:32;4.70;;;2.92;;
48727;SDS011;34527;45.618;5.130;2022-10-16T00:03:00;4.10;;;3.00;;
48727;SDS011;34527;45.618;5.130;2022-10-16T00:05:27;4.25;;;3.10;;
48727;SDS011;34527;45.618;5.130;2022-10-16T00:07:52;3.95;;;3.13;;
48727;SDS011;34527;45.618;5.130;2022-10-16T00:10:18;6.35;;;3.30;;
48727;SDS011;34527;45.618;5.130;2022-10-16T00:12:44;4.28;;;2.97;;
48727;SDS011;34527;45.618;5.130;2022-10-16T00:15:10;8.57;;;3.42;;
48727;SDS011;34527;45.618;5.130;2022-10-16T00:17:37;4.88;;;3.20;;
48727;SDS011;34527;45.618;5.130;2022-10-16T00:20:03;4.75;;;3.15;;
48727;SDS011;34527;45.618;5.130;2022-10-16T00:22:29;6.70;;;3.08;;
48727;SDS011;34527;45.618;5.130;2022-10-16T00:24:55;3.72;;;3.30;;
48727;SDS011;34527;45.618;5.130;2022-10-16T00:27:21;5.10;;;3.60;;
48727;SDS011;34527;45.618;5.130;2022-10-16T00:29:50;3.92;;;3.13;;
48727;SDS011;34527;45.618;5.130;2022-10-16T00:32:17;6.07;;;2.95;;
48727;SDS011;34527;45.618;5.130;2022-10-16T00:34:44;4.68;;;2.80;;
48727;SDS011;34527;45.618;5.130;2022-10-16T00:37:10;4.55;;;2.88;;
48727;SDS011;34527;45.618;5.130;2022-10-16T00:39:36;6.88;;;3.25;;
48727;SDS011;34527;45.618;5.130;2022-10-16T00:42:02;6.75;;;3.05;;
48727;SDS011;34527;45.618;5.130;2022-10-16T00:47:13;6.43;;;3.58;;
48727;SDS011;34527;45.618;5.130;2022-10-16T00:49:47;3.13;;;2.72;;
48727;SDS011;34527;45.618;5.130;2022-10-16T00:52:16;5.85;;;3.40;;
48727;SDS011;34527;45.618;5.130;2022-10-16T00:54:43;5.35;;;2.95;;
48727;SDS011;34527;45.618;5.130;2022-10-16T00:57:11;4.38;;;2.97;;
48727;SDS011;34527;45.618;5.130;2022-10-16T00:59:41;5.68;;;3.10;;
48727;SDS011;34527;45.618;5.130;2022-10-16T01:02:09;5.65;;;3.03;;
48727;SDS011;34527;45.618;5.130;2022-10-16T01:04:39;4.38;;;2.88;;
48727;SDS011;34527;45.618;5.130;2022-10-16T01:13:10;6.57;;;3.20;;
48727;SDS011;34527;45.618;5.130;2022-10-16T01:18:14;5.93;;;3.20;;
48727;SDS011;34527;45.618;5.130;2022-10-16T01:23:59;5.28;;;3.00;;
48727;SDS011;34527;45.618;5.130;2022-10-16T01:28:52;4.15;;;3.22;;
48727;SDS011;34527;45.618;5.130;2022-10-16T01:31:22;6.22;;;3.63;;
48727;SDS011;34527;45.618;5.130;2022-10-16T01:33:55;8.82;;;3.17;;
48727;SDS011;34527;45.618;5.130;2022-10-16T01:36:37;5.65;;;3.20;;
48727;SDS011;34527;45.618;5.130;2022-10-16T01:39:08;6.20;;;3.05;;
48727;SDS011;34527;45.618;5.130;2022-10-16T01:41:38;5.85;;;3.45;;
48727;SDS011;34527;45.618;5.130;2022-10-16T01:44:14;6.00;;;3.42;;
48727;SDS011;34527;45.618;5.130;2022-10-16T01:46:44;5.38;;;3.10;;
48727;SDS011;34527;45.618;5.130;2022-10-16T01:49:13;5.25;;;3.17;;
48727;SDS011;34527;45.618;5.130;2022-10-16T01:51:41;6.00;;;3.55;;
48727;SDS011;34527;45.618;5.130;2022-10-16T01:54:12;5.28;;;3.13;;
48727;SDS011;34527;45.618;5.130;2022-10-16T01:56:40;4.03;;;2.97;;
48727;SDS011;34527;45.618;5.130;2022-10-16T01:59:09;8.13;;;3.60;;
48727;SDS011;34527;45.618;5.130;2022-10-16T02:01:40;8.70;;;3.30;;
48727;SDS011;34527;45.618;5.130;2022-10-16T02:04:12;4.38;;;3.00;;
48727;SDS011;34527;45.618;5.130;2022-10-16T02:06:42;5.15;;;3.08;;
48727;SDS011;34527;45.618;5.130;2022-10-16T02:09:08;4.25;;;3.53;;
48727;SDS011;34527;45.618;5.130;2022-10-16T02:11:34;7.25;;;4.10;;
48727;SDS011;34527;45.618;5.130;2022-10-16T02:14:01;6.78;;;3.65;;
48727;SDS011;34527;45.618;5.130;2022-10-16T02:16:34;6.45;;;3.53;;
48727;SDS011;34527;45.618;5.130;2022-10-16T02:19:09;5.47;;;3.70;;
48727;SDS011;34527;45.618;5.130;2022-10-16T02:21:39;4.75;;;3.42;;
48727;SDS011;34527;45.618;5.130;2022-10-16T02:29:28;6.00;;;3.35;;
48727;SDS011;34527;45.618;5.130;2022-10-16T02:31:59;4.72;;;3.30;;
48727;SDS011;34527;45.618;5.130;2022-10-16T02:34:27;5.63;;;3.20;;
48727;SDS011;34527;45.618;5.130;2022-10-16T02:36:57;6.78;;;3.33;;
48727;SDS011;34527;45.618;5.130;2022-10-16T02:39:26;4.45;;;3.58;;
48727;SDS011;34527;45.618;5.130;2022-10-16T02:41:53;6.13;;;3.45;;
48727;SDS011;34527;45.618;5.130;2022-10-16T02:44:19;4.32;;;3.50;;
48727;SDS011;34527;45.618;5.130;2022-10-16T02:46:45;5.57;;;3.80;;
48727;SDS011;34527;45.618;5.130;2022-10-16T02:49:11;5.50;;;3.75;;
48727;SDS011;34527;45.618;5.130;2022-10-16T02:51:37;6.65;;;3.97;;
48727;SDS011;34527;45.618;5.130;2022-10-16T02:54:03;9.30;;;4.15;;
48727;SDS011;34527;45.618;5.130;2022-10-16T02:56:29;6.05;;;3.78;;
48727;SDS011;34527;45.618;5.130;2022-10-16T02:58:56;6.70;;;4.05;;
48727;SDS011;34527;45.618;5.130;2022-10-16T03:01:22;5.25;;;3.95;;
48727;SDS011;34527;45.618;5.130;2022-10-16T03:03:48;6.72;;;4.50;;
48727;SDS011;34527;45.618;5.130;2022-10-16T03:06:14;5.07;;;3.92;;
48727;SDS011;34527;45.618;5.130;2022-10-16T03:08:40;6.82;;;3.95;;
48727;SDS011;34527;45.618;5.130;2022-10-16T03:11:06;6.38;;;4.18;;
48727;SDS011;34527;45.618;5.130;2022-10-16T03:13:32;6.53;;;4.38;;
48727;SDS011;34527;45.618;5.130;2022-10-16T03:15:58;4.88;;;3.90;;
48727;SDS011;34527;45.618;5.130;2022-10-16T03:18:24;5.07;;;4.50;;
48727;SDS011;34527;45.618;5.130;2022-10-16T03:20:50;7.78;;;4.47;;
48727;SDS011;34527;45.618;5.130;2022-10-16T03:23:16;7.25;;;4.43;;
48727;SDS011;34527;45.618;5.130;2022-10-16T03:25:41;7.00;;;4.82;;
48727;SDS011;34527;45.618;5.130;2022-10-16T03:28:07;7.65;;;4.65;;
48727;SDS011;34527;45.618;5.130;2022-10-16T03:30:34;5.72;;;4.00;;
48727;SDS011;34527;45.618;5.130;2022-10-16T03:32:59;9.45;;;4.80;;
48727;SDS011;34527;45.618;5.130;2022-10-16T03:35:25;7.55;;;4.70;;
48727;SDS011;34527;45.618;5.130;2022-10-16T03:37:51;10.38;;;4.80;;
48727;SDS011;34527;45.618;5.130;2022-10-16T03:40:18;6.57;;;5.05;;
48727;SDS011;34527;45.618;5.130;2022-10-16T03:42:43;8.15;;;4.82;;
48727;SDS011;34527;45.618;5.130;2022-10-16T03:45:10;10.05;;;5.78;;
48727;SDS011;34527;45.618;5.130;2022-10-16T03:47:36;6.57;;;4.95;;
48727;SDS011;34527;45.618;5.130;2022-10-16T03:50:02;9.18;;;5.38;;
48727;SDS011;34527;45.618;5.130;2022-10-16T03:52:29;9.05;;;5.20;;
48727;SDS011;34527;45.618;5.130;2022-10-16T03:54:54;10.35;;;5.63;;
48727;SDS011;34527;45.618;5.130;2022-10-16T03:57:20;7.07;;;5.13;;
48727;SDS011;34527;45.618;5.130;2022-10-16T03:59:46;6.78;;;5.28;;
48727;SDS011;34527;45.618;5.130;2022-10-16T04:02:12;8.10;;;4.72;;
48727;SDS011;34527;45.618;5.130;2022-10-16T04:04:38;9.38;;;5.82;;
48727;SDS011;34527;45.618;5.130;2022-10-16T04:07:04;7.00;;;5.43;;
48727;SDS011;34527;45.618;5.130;2022-10-16T04:09:30;6.38;;;5.25;;
48727;SDS011;34527;45.618;5.130;2022-10-16T04:11:56;8.77;;;5.05;;
48727;SDS011;34527;45.618;5.130;2022-10-16T04:14:22;6.93;;;5.32;;
48727;SDS011;34527;45.618;5.130;2022-10-16T04:16:47;7.70;;;5.40;;
48727;SDS011;34527;45.618;5.130;2022-10-16T04:19:13;6.10;;;4.93;;
48727;SDS011;34527;45.618;5.130;2022-10-16T04:21:39;7.38;;;5.35;;
48727;SDS011;34527;45.618;5.130;2022-10-16T04:24:05;8.15;;;5.30;;
48727;SDS011;34527;45.618;5.130;2022-10-16T04:26:31;6.53;;;5.50;;
48727;SDS011;34527;45.618;5.130;2022-10-16T04:28:57;7.88;;;5.38;;
48727;SDS011;34527;45.618;5.130;2022-10-16T04:31:23;7.65;;;5.60;;
48727;SDS011;34527;45.618;5.130;2022-10-16T04:33:48;12.45;;;5.25;;
48727;SDS011;34527;45.618;5.130;2022-10-16T04:36:14;9.68;;;5.22;;
48727;SDS011;34527;45.618;5.130;2022-10-16T04:38:40;10.10;;;5.00;;
48727;SDS011;34527;45.618;5.130;2022-10-16T04:41:06;9.38;;;5.47;;
48727;SDS011;34527;45.618;5.130;2022-10-16T04:43:33;7.18;;;5.03;;
48727;SDS011;34527;45.618;5.130;2022-10-16T04:45:59;7.50;;;4.60;;
48727;SDS011;34527;45.618;5.130;2022-10-16T04:48:25;9.60;;;4.82;;
48727;SDS011;34527;45.618;5.130;2022-10-16T04:50:51;6.80;;;4.95;;
48727;SDS011;34527;45.618;5.130;2022-10-16T04:53:17;9.05;;;4.82;;
48727;SDS011;34527;45.618;5.130;2022-10-16T04:55:43;7.00;;;5.15;;
48727;SDS011;34527;45.618;5.130;2022-10-16T04:58:09;9.63;;;5.63;;
48727;SDS011;34527;45.618;5.130;2022-10-16T05:00:35;7.15;;;4.80;;
48727;SDS011;34527;45.618;5.130;2022-10-16T05:03:02;5.55;;;4.28;;
48727;SDS011;34527;45.618;5.130;2022-10-16T05:05:31;5.10;;;4.38;;
48727;SDS011;34527;45.618;5.130;2022-10-16T05:07:56;7.65;;;4.70;;
48727;SDS011;34527;45.618;5.130;2022-10-16T05:10:22;9.75;;;4.90;;
48727;SDS011;34527;45.618;5.130;2022-10-16T05:12:48;8.23;;;4.95;;
48727;SDS011;34527;45.618;5.130;2022-10-16T05:15:14;6.22;;;4.30;;
48727;SDS011;34527;45.618;5.130;2022-10-16T05:17:40;7.43;;;4.95;;
48727;SDS011;34527;45.618;5.130;2022-10-16T05:20:06;7.38;;;4.90;;
48727;SDS011;34527;45.618;5.130;2022-10-16T05:22:32;8.70;;;4.80;;
48727;SDS011;34527;45.618;5.130;2022-10-16T05:24:58;7.32;;;4.30;;
48727;SDS011;34527;45.618;5.130;2022-10-16T05:27:24;7.00;;;4.07;;
48727;SDS011;34527;45.618;5.130;2022-10-16T05:29:50;7.05;;;4.40;;
48727;SDS011;34527;45.618;5.130;2022-10-16T05:32:16;4.30;;;3.90;;
48727;SDS011;34527;45.618;5.130;2022-10-16T05:34:43;7.50;;;4.07;;
48727;SDS011;34527;45.618;5.130;2022-10-16T05:37:10;5.85;;;4.18;;
48727;SDS011;34527;45.618;5.130;2022-10-16T05:39:37;7.97;;;4.03;;
48727;SDS011;34527;45.618;5.130;2022-10-16T05:42:03;5.57;;;4.20;;
48727;SDS011;34527;45.618;5.130;2022-10-16T05:44:29;9.13;;;3.97;;
48727;SDS011;34527;45.618;5.130;2022-10-16T05:46:55;8.80;;;4.47;;
48727;SDS011;34527;45.618;5.130;2022-10-16T05:49:21;8.00;;;4.25;;
48727;SDS011;34527;45.618;5.130;2022-10-16T05:51:47;6.90;;;4.65;;
48727;SDS011;34527;45.618;5.130;2022-10-16T05:54:13;5.25;;;3.90;;
48727;SDS011;34527;45.618;5.130;2022-10-16T05:56:39;4.78;;;3.63;;
48727;SDS011;34527;45.618;5.130;2022-10-16T05:59:05;6.47;;;4.90;;
48727;SDS011;34527;45.618;5.130;2022-10-16T06:01:31;7.53;;;4.38;;
48727;SDS011;34527;45.618;5.130;2022-10-16T06:03:57;6.60;;;4.85;;
48727;SDS011;34527;45.618;5.130;2022-10-16T06:06:24;4.97;;;4.05;;
48727;SDS011;34527;45.618;5.130;2022-10-16T06:08:51;6.32;;;4.63;;
48727;SDS011;34527;45.618;5.130;2022-10-16T06:11:19;9.60;;;4.63;;
48727;SDS011;34527;45.618;5.130;2022-10-16T06:13:53;9.88;;;4.95;;
48727;SDS011;34527;45.618;5.130;2022-10-16T06:16:25;8.35;;;5.07;;
48727;SDS011;34527;45.618;5.130;2022-10-16T06:18:52;10.15;;;5.60;;
48727;SDS011;34527;45.618;5.130;2022-10-16T06:21:20;10.23;;;5.50;;
48727;SDS011;34527;45.618;5.130;2022-10-16T06:23:50;9.93;;;5.40;;
48727;SDS011;34527;45.618;5.130;2022-10-16T06:26:17;8.05;;;4.65;;
48727;SDS011;34527;45.618;5.130;2022-10-16T06:28:44;8.57;;;4.70;;
48727;SDS011;34527;45.618;5.130;2022-10-16T06:31:11;8.10;;;4.50;;
48727;SDS011;34527;45.618;5.130;2022-10-16T06:33:37;5.50;;;4.00;;
48727;SDS011;34527;45.618;5.130;2022-10-16T06:36:08;7.97;;;4.35;;
48727;SDS011;34527;45.618;5.130;2022-10-16T06:38:36;9.13;;;4.40;;
48727;SDS011;34527;45.618;5.130;2022-10-16T06:41:03;7.53;;;4.18;;
48727;SDS011;34527;45.618;5.130;2022-10-16T06:43:30;10.77;;;4.53;;
48727;SDS011;34527;45.618;5.130;2022-10-16T06:46:06;9.32;;;4.10;;
48727;SDS011;34527;45.618;5.130;2022-10-16T06:48:33;6.13;;;4.10;;
48727;SDS011;34527;45.618;5.130;2022-10-16T06:53:34;5.82;;;4.05;;
48727;SDS011;34527;45.618;5.130;2022-10-16T06:56:07;11.57;;;4.55;;
48727;SDS011;34527;45.618;5.130;2022-10-16T06:58:41;6.38;;;3.95;;
48727;SDS011;34527;45.618;5.130;2022-10-16T07:01:07;8.95;;;4.18;;
48727;SDS011;34527;45.618;5.130;2022-10-16T07:03:35;4.88;;;4.13;;
48727;SDS011;34527;45.618;5.130;2022-10-16T07:06:05;7.82;;;4.53;;
48727;SDS011;34527;45.618;5.130;2022-10-16T07:08:35;6.68;;;3.97;;
48727;SDS011;34527;45.618;5.130;2022-10-16T07:11:05;5.93;;;4.00;;
48727;SDS011;34527;45.618;5.130;2022-10-16T07:13:34;12.07;;;3.92;;
48727;SDS011;34527;45.618;5.130;2022-10-16T07:16:05;6.15;;;3.63;;
48727;SDS011;34527;45.618;5.130;2022-10-16T07:18:31;6.90;;;3.50;;
48727;SDS011;34527;45.618;5.130;2022-10-16T07:21:07;7.20;;;3.58;;
48727;SDS011;34527;45.618;5.130;2022-10-16T07:23:35;7.47;;;3.65;;
48727;SDS011;34527;45.618;5.130;2022-10-16T07:26:01;8.52;;;3.50;;
48727;SDS011;34527;45.618;5.130;2022-10-16T07:28:27;6.20;;;3.25;;
48727;SDS011;34527;45.618;5.130;2022-10-16T07:30:54;7.30;;;3.40;;
48727;SDS011;34527;45.618;5.130;2022-10-16T07:33:20;6.35;;;3.45;;
48727;SDS011;34527;45.618;5.130;2022-10-16T07:35:49;5.82;;;3.33;;
48727;SDS011;34527;45.618;5.130;2022-10-16T07:38:16;7.22;;;3.15;;
48727;SDS011;34527;45.618;5.130;2022-10-16T07:40:43;4.90;;;2.90;;
48727;SDS011;34527;45.618;5.130;2022-10-16T07:43:09;4.07;;;3.03;;
48727;SDS011;34527;45.618;5.130;2022-10-16T07:45:35;4.07;;;3.05;;
48727;SDS011;34527;45.618;5.130;2022-10-16T07:48:01;4.80;;;3.20;;
48727;SDS011;34527;45.618;5.130;2022-10-16T07:50:27;3.97;;;2.78;;
48727;SDS011;34527;45.618;5.130;2022-10-16T07:52:53;9.02;;;2.97;;
48727;SDS011;34527;45.618;5.130;2022-10-16T07:55:19;7.88;;;3.42;;
48727;SDS011;34527;45.618;5.130;2022-10-16T07:57:45;4.07;;;3.00;;
48727;SDS011;34527;45.618;5.130;2022-10-16T08:00:11;2.50;;;2.30;;
48727;SDS011;34527;45.618;5.130;2022-10-16T08:02:41;3.08;;;2.78;;
48727;SDS011;34527;45.618;5.130;2022-10-16T08:05:07;3.72;;;2.65;;
48727;SDS011;34527;45.618;5.130;2022-10-16T08:07:33;3.63;;;2.42;;
48727;SDS011;34527;45.618;5.130;2022-10-16T08:09:59;5.10;;;2.67;;
48727;SDS011;34527;45.618;5.130;2022-10-16T08:12:25;6.03;;;2.75;;
48727;SDS011;34527;45.618;5.130;2022-10-16T08:14:51;4.60;;;2.47;;
48727;SDS011;34527;45.618;5.130;2022-10-16T08:17:17;4.15;;;2.55;;
48727;SDS011;34527;45.618;5.130;2022-10-16T08:19:46;5.30;;;2.40;;
48727;SDS011;34527;45.618;5.130;2022-10-16T08:22:13;4.32;;;2.35;;
48727;SDS011;34527;45.618;5.130;2022-10-16T08:24:39;5.47;;;2.20;;
48727;SDS011;34527;45.618;5.130;2022-10-16T08:27:06;2.80;;;2.40;;
48727;SDS011;34527;45.618;5.130;2022-10-16T08:29:34;5.13;;;2.55;;
48727;SDS011;34527;45.618;5.130;2022-10-16T08:32:00;5.93;;;2.40;;
48727;SDS011;34527;45.618;5.130;2022-10-16T08:34:26;3.05;;;2.20;;
48727;SDS011;34527;45.618;5.130;2022-10-16T08:36:54;4.88;;;2.45;;
48727;SDS011;34527;45.618;5.130;2022-10-16T08:39:20;5.50;;;2.47;;
48727;SDS011;34527;45.618;5.130;2022-10-16T08:50:22;3.85;;;2.10;;
48727;SDS011;34527;45.618;5.130;2022-10-16T08:52:50;4.05;;;2.30;;
48727;SDS011;34527;45.618;5.130;2022-10-16T08:55:19;6.85;;;2.03;;
48727;SDS011;34527;45.618;5.130;2022-10-16T08:58:02;5.82;;;2.35;;
48727;SDS011;34527;45.618;5.130;2022-10-16T09:00:55;4.53;;;2.38;;
48727;SDS011;34527;45.618;5.130;2022-10-16T09:12:04;6.03;;;2.67;;
48727;SDS011;34527;45.618;5.130;2022-10-16T09:17:50;6.32;;;3.13;;
48727;SDS011;34527;45.618;5.130;2022-10-16T09:20:32;4.80;;;2.20;;
48727;SDS011;34527;45.618;5.130;2022-10-16T09:23:07;6.85;;;2.65;;
48727;SDS011;34527;45.618;5.130;2022-10-16T09:25:54;6.23;;;2.67;;
48727;SDS011;34527;45.618;5.130;2022-10-16T09:28:23;3.20;;;2.25;;
48727;SDS011;34527;45.618;5.130;2022-10-16T09:30:49;4.25;;;2.15;;
48727;SDS011;34527;45.618;5.130;2022-10-16T09:33:15;2.78;;;1.92;;
48727;SDS011;34527;45.618;5.130;2022-10-16T09:35:45;6.25;;;2.40;;
48727;SDS011;34527;45.618;5.130;2022-10-16T09:38:26;2.85;;;1.90;;
48727;SDS011;34527;45.618;5.130;2022-10-16T09:40:53;5.93;;;2.35;;
48727;SDS011;34527;45.618;5.130;2022-10-16T09:43:25;3.78;;;2.10;;
48727;SDS011;34527;45.618;5.130;2022-10-16T09:46:04;7.65;;;2.35;;
48727;SDS011;34527;45.618;5.130;2022-10-16T09:48:49;4.22;;;2.40;;
48727;SDS011;34527;45.618;5.130;2022-10-16T09:51:20;3.63;;;2.13;;
48727;SDS011;34527;45.618;5.130;2022-10-16T09:53:53;5.82;;;1.95;;
48727;SDS011;34527;45.618;5.130;2022-10-16T09:58:52;4.30;;;2.00;;
48727;SDS011;34527;45.618;5.130;2022-10-16T10:01:20;3.75;;;2.08;;
48727;SDS011;34527;45.618;5.130;2022-10-16T10:03:49;5.25;;;2.33;;
48727;SDS011;34527;45.618;5.130;2022-10-16T10:06:18;6.78;;;2.75;;
48727;SDS011;34527;45.618;5.130;2022-10-16T10:08:55;4.43;;;2.83;;
48727;SDS011;34527;45.618;5.130;2022-10-16T10:11:42;9.73;;;2.33;;
48727;SDS011;34527;45.618;5.130;2022-10-16T10:14:13;5.03;;;2.97;;
48727;SDS011;34527;45.618;5.130;2022-10-16T10:16:46;6.03;;;1.92;;
48727;SDS011;34527;45.618;5.130;2022-10-16T10:19:14;5.10;;;1.90;;
48727;SDS011;34527;45.618;5.130;2022-10-16T10:21:48;4.65;;;2.08;;
48727;SDS011;34527;45.618;5.130;2022-10-16T10:24:16;4.10;;;2.00;;
48727;SDS011;34527;45.618;5.130;2022-10-16T10:29:45;5.68;;;2.38;;
48727;SDS011;34527;45.618;5.130;2022-10-16T10:35:29;8.88;;;3.92;;
48727;SDS011;34527;45.618;5.130;2022-10-16T10:40:49;8.15;;;3.25;;
48727;SDS011;34527;45.618;5.130;2022-10-16T10:46:34;4.18;;;2.10;;
48727;SDS011;34527;45.618;5.130;2022-10-16T10:56:49;4.13;;;2.17;;
48727;SDS011;34527;45.618;5.130;2022-10-16T10:59:32;5.72;;;2.33;;
48727;SDS011;34527;45.618;5.130;2022-10-16T11:04:49;3.20;;;2.22;;
48727;SDS011;34527;45.618;5.130;2022-10-16T11:07:39;5.50;;;2.20;;
48727;SDS011;34527;45.618;5.130;2022-10-16T11:10:13;3.00;;;2.00;;
48727;SDS011;34527;45.618;5.130;2022-10-16T11:12:55;7.68;;;2.30;;
48727;SDS011;34527;45.618;5.130;2022-10-16T11:15:27;4.22;;;2.08;;
48727;SDS011;34527;45.618;5.130;2022-10-16T11:18:03;7.45;;;2.30;;
48727;SDS011;34527;45.618;5.130;2022-10-16T11:20:42;3.90;;;2.20;;
48727;SDS011;34527;45.618;5.130;2022-10-16T11:25:58;4.30;;;2.53;;
48727;SDS011;34527;45.618;5.130;2022-10-16T11:28:29;5.30;;;2.55;;
48727;SDS011;34527;45.618;5.130;2022-10-16T11:31:05;4.43;;;2.20;;
48727;SDS011;34527;45.618;5.130;2022-10-16T11:33:42;3.20;;;1.90;;
48727;SDS011;34527;45.618;5.130;2022-10-16T11:41:33;5.80;;;2.47;;
48727;SDS011;34527;45.618;5.130;2022-10-16T11:49:53;4.30;;;2.30;;
48727;SDS011;34527;45.618;5.130;2022-10-16T11:52:44;13.40;;;2.20;;
48727;SDS011;34527;45.618;5.130;2022-10-16T11:55:32;6.10;;;2.45;;
48727;SDS011;34527;45.618;5.130;2022-10-16T11:58:15;4.35;;;2.35;;
48727;SDS011;34527;45.618;5.130;2022-10-16T12:09:04;7.95;;;3.25;;
48727;SDS011;34527;45.618;5.130;2022-10-16T12:11:37;5.93;;;3.22;;
48727;SDS011;34527;45.618;5.130;2022-10-16T12:16:37;6.05;;;2.88;;
48727;SDS011;34527;45.618;5.130;2022-10-16T12:19:11;4.22;;;2.50;;
48727;SDS011;34527;45.618;5.130;2022-10-16T12:21:39;7.35;;;2.95;;
48727;SDS011;34527;45.618;5.130;2022-10-16T12:24:06;3.97;;;2.38;;
48727;SDS011;34527;45.618;5.130;2022-10-16T12:26:44;3.20;;;2.53;;
48727;SDS011;34527;45.618;5.130;2022-10-16T12:29:21;5.15;;;2.80;;
48727;SDS011;34527;45.618;5.130;2022-10-16T12:31:58;6.57;;;2.63;;
48727;SDS011;34527;45.618;5.130;2022-10-16T12:37:28;8.03;;;3.17;;
48727;SDS011;34527;45.618;5.130;2022-10-16T12:39:59;4.15;;;2.75;;
48727;SDS011;34527;45.618;5.130;2022-10-16T12:42:38;8.05;;;2.97;;
48727;SDS011;34527;45.618;5.130;2022-10-16T12:45:24;5.45;;;2.78;;
48727;SDS011;34527;45.618;5.130;2022-10-16T12:47:51;4.47;;;2.58;;
48727;SDS011;34527;45.618;5.130;2022-10-16T12:52:57;4.07;;;2.60;;
48727;SDS011;34527;45.618;5.130;2022-10-16T12:55:23;8.32;;;3.00;;
48727;SDS011;34527;45.618;5.130;2022-10-16T12:58:10;10.50;;;2.90;;
48727;SDS011;34527;45.618;5.130;2022-10-16T13:06:25;5.80;;;2.50;;
48727;SDS011;34527;45.618;5.130;2022-10-16T13:17:05;6.32;;;2.95;;
48727;SDS011;34527;45.618;5.130;2022-10-16T13:22:45;6.03;;;2.75;;
48727;SDS011;34527;45.618;5.130;2022-10-16T13:28:33;6.18;;;2.85;;
48727;SDS011;34527;45.618;5.130;2022-10-16T13:31:01;9.68;;;3.80;;
48727;SDS011;34527;45.618;5.130;2022-10-16T13:33:37;7.47;;;3.38;;
48727;SDS011;34527;45.618;5.130;2022-10-16T13:36:18;4.82;;;2.58;;
48727;SDS011;34527;45.618;5.130;2022-10-16T13:38:59;10.23;;;2.70;;
48727;SDS011;34527;45.618;5.130;2022-10-16T13:41:31;4.40;;;2.25;;
48727;SDS011;34527;45.618;5.130;2022-10-16T13:43:57;5.20;;;2.40;;
48727;SDS011;34527;45.618;5.130;2022-10-16T13:46:23;3.55;;;2.45;;
48727;SDS011;34527;45.618;5.130;2022-10-16T13:48:58;5.85;;;2.60;;
48727;SDS011;34527;45.618;5.130;2022-10-16T13:51:25;6.25;;;2.65;;
48727;SDS011;34527;45.618;5.130;2022-10-16T13:53:52;4.35;;;2.85;;
48727;SDS011;34527;45.618;5.130;2022-10-16T13:56:22;8.20;;;2.42;;
48727;SDS011;34527;45.618;5.130;2022-10-16T13:58:59;18.73;;;2.75;;
48727;SDS011;34527;45.618;5.130;2022-10-16T14:01:27;6.70;;;2.38;;
48727;SDS011;34527;45.618;5.130;2022-10-16T14:04:09;7.47;;;3.00;;
48727;SDS011;34527;45.618;5.130;2022-10-16T14:06:40;7.22;;;2.70;;
48727;SDS011;34527;45.618;5.130;2022-10-16T14:09:09;6.07;;;2.70;;
48727;SDS011;34527;45.618;5.130;2022-10-16T14:11:43;7.65;;;5.53;;
48727;SDS011;34527;45.618;5.130;2022-10-16T14:14:12;4.57;;;3.25;;
48727;SDS011;34527;45.618;5.130;2022-10-16T14:16:40;11.70;;;4.95;;
48727;SDS011;34527;45.618;5.130;2022-10-16T14:19:13;3.90;;;2.70;;
48727;SDS011;34527;45.618;5.130;2022-10-16T14:21:58;8.60;;;3.25;;
48727;SDS011;34527;45.618;5.130;2022-10-16T14:24:26;10.32;;;5.57;;
48727;SDS011;34527;45.618;5.130;2022-10-16T14:26:56;8.43;;;2.70;;
48727;SDS011;34527;45.618;5.130;2022-10-16T14:29:23;6.63;;;2.42;;
48727;SDS011;34527;45.618;5.130;2022-10-16T14:34:38;8.20;;;2.88;;
48727;SDS011;34527;45.618;5.130;2022-10-16T14:37:14;4.25;;;2.70;;
48727;SDS011;34527;45.618;5.130;2022-10-16T14:40:00;5.05;;;2.75;;
48727;SDS011;34527;45.618;5.130;2022-10-16T14:42:27;6.65;;;3.08;;
48727;SDS011;34527;45.618;5.130;2022-10-16T14:44:53;6.90;;;3.38;;
48727;SDS011;34527;45.618;5.130;2022-10-16T14:47:24;9.75;;;3.15;;
48727;SDS011;34527;45.618;5.130;2022-10-16T14:49:53;6.05;;;2.70;;
48727;SDS011;34527;45.618;5.130;2022-10-16T14:52:22;16.33;;;3.50;;
48727;SDS011;34527;45.618;5.130;2022-10-16T14:54:48;6.88;;;3.00;;
48727;SDS011;34527;45.618;5.130;2022-10-16T14:57:16;9.30;;;3.15;;
48727;SDS011;34527;45.618;5.130;2022-10-16T14:59:43;9.50;;;3.25;;
48727;SDS011;34527;45.618;5.130;2022-10-16T15:02:19;6.47;;;2.90;;
48727;SDS011;34527;45.618;5.130;2022-10-16T15:04:46;8.00;;;5.32;;
48727;SDS011;34527;45.618;5.130;2022-10-16T15:07:12;5.28;;;2.55;;
48727;SDS011;34527;45.618;5.130;2022-10-16T15:09:38;4.45;;;2.70;;
48727;SDS011;34527;45.618;5.130;2022-10-16T15:12:04;4.03;;;3.08;;
48727;SDS011;34527;45.618;5.130;2022-10-16T15:14:30;8.32;;;2.97;;
48727;SDS011;34527;45.618;5.130;2022-10-16T15:16:55;3.85;;;2.47;;
48727;SDS011;34527;45.618;5.130;2022-10-16T15:19:21;4.88;;;3.22;;
48727;SDS011;34527;45.618;5.130;2022-10-16T15:21:47;7.47;;;3.10;;
48727;SDS011;34527;45.618;5.130;2022-10-16T15:24:14;8.40;;;2.70;;
48727;SDS011;34527;45.618;5.130;2022-10-16T15:26:40;4.03;;;2.95;;
48727;SDS011;34527;45.618;5.130;2022-10-16T15:29:07;6.00;;;3.53;;
48727;SDS011;34527;45.618;5.130;2022-10-16T15:31:33;13.85;;;4.03;;
48727;SDS011;34527;45.618;5.130;2022-10-16T15:34:00;7.93;;;3.10;;
48727;SDS011;34527;45.618;5.130;2022-10-16T15:36:34;9.07;;;3.50;;
48727;SDS011;34527;45.618;5.130;2022-10-16T15:39:10;7.13;;;3.45;;
48727;SDS011;34527;45.618;5.130;2022-10-16T15:41:38;8.02;;;3.10;;
48727;SDS011;34527;45.618;5.130;2022-10-16T15:44:04;4.95;;;3.00;;
48727;SDS011;34527;45.618;5.130;2022-10-16T15:46:30;9.25;;;3.20;;
48727;SDS011;34527;45.618;5.130;2022-10-16T15:48:58;6.63;;;3.15;;
48727;SDS011;34527;45.618;5.130;2022-10-16T15:51:26;5.18;;;3.10;;
48727;SDS011;34527;45.618;5.130;2022-10-16T15:53:55;10.38;;;4.00;;
48727;SDS011;34527;45.618;5.130;2022-10-16T15:56:22;4.68;;;3.38;;
48727;SDS011;34527;45.618;5.130;2022-10-16T15:58:50;7.38;;;3.33;;
48727;SDS011;34527;45.618;5.130;2022-10-16T16:01:17;8.20;;;4.10;;
48727;SDS011;34527;45.618;5.130;2022-10-16T16:03:43;8.65;;;4.20;;
48727;SDS011;34527;45.618;5.130;2022-10-16T16:06:10;6.72;;;3.13;;
48727;SDS011;34527;45.618;5.130;2022-10-16T16:08:37;5.93;;;3.50;;
48727;SDS011;34527;45.618;5.130;2022-10-16T16:11:05;7.70;;;3.70;;
48727;SDS011;34527;45.618;5.130;2022-10-16T16:13:35;3.53;;;3.22;;
48727;SDS011;34527;45.618;5.130;2022-10-16T16:16:13;5.18;;;3.63;;
48727;SDS011;34527;45.618;5.130;2022-10-16T16:18:40;16.65;;;4.03;;
48727;SDS011;34527;45.618;5.130;2022-10-16T16:21:06;6.63;;;3.97;;
48727;SDS011;34527;45.618;5.130;2022-10-16T16:23:32;5.63;;;3.20;;
48727;SDS011;34527;45.618;5.130;2022-10-16T16:26:06;5.82;;;3.80;;
48727;SDS011;34527;45.618;5.130;2022-10-16T16:28:37;5.28;;;3.20;;
48727;SDS011;34527;45.618;5.130;2022-10-16T16:31:04;7.75;;;4.07;;
48727;SDS011;34527;45.618;5.130;2022-10-16T16:33:31;6.18;;;3.42;;
48727;SDS011;34527;45.618;5.130;2022-10-16T16:36:00;4.20;;;3.50;;
48727;SDS011;34527;45.618;5.130;2022-10-16T16:38:28;5.82;;;3.25;;
48727;SDS011;34527;45.618;5.130;2022-10-16T16:40:54;4.72;;;3.80;;
48727;SDS011;34527;45.618;5.130;2022-10-16T16:43:29;5.55;;;3.55;;
48727;SDS011;34527;45.618;5.130;2022-10-16T16:45:55;8.05;;;3.80;;
48727;SDS011;34527;45.618;5.130;2022-10-16T16:48:26;6.47;;;3.65;;
48727;SDS011;34527;45.618;5.130;2022-10-16T16:50:52;6.38;;;3.50;;
48727;SDS011;34527;45.618;5.130;2022-10-16T16:53:18;7.57;;;3.50;;
48727;SDS011;34527;45.618;5.130;2022-10-16T16:55:43;7.45;;;3.90;;
48727;SDS011;34527;45.618;5.130;2022-10-16T16:58:09;7.35;;;3.75;;
48727;SDS011;34527;45.618;5.130;2022-10-16T17:00:35;8.18;;;3.50;;
48727;SDS011;34527;45.618;5.130;2022-10-16T17:03:01;5.95;;;3.47;;